sensor_id;sensor_type;location;lat;lon;timestamp;temperature;humidity
8792;DHT22;4432;50.890;4.744;2023-06-01T00:01:59;15.70;99.90
8792;DHT22;4432;50.890;4.744;2023-06-01T00:04:25;15.60;99.90
8792;DHT22;4432;50.890;4.744;2023-06-01T00:06:51;15.60;99.90
8792;DHT22;4432;50.890;4.744;2023-06-01T00:09:17;15.60;99.90
8792;DHT22;4432;50.890;4.744;2023-06-01T00:11:43;15.60;99.90
8792;DHT22;4432;50.890;4.744;2023-06-01T00:14:09;15.50;99.90
8792;DHT22;4432;50.890;4.744;2023-06-01T00:16:35;15.40;99.90
8792;DHT22;4432;50.890;4.744;2023-06-01T00:19:02;15.40;99.90
8792;DHT22;4432;50.890;4.744;2023-06-01T00:21:29;15.30;99.90
8792;DHT22;4432;50.890;4.744;2023-06-01T00:23:58;15.30;99.90
8792;DHT22;4432;50.890;4.744;2023-06-01T00:26:24;15.20;99.90
8792;DHT22;4432;50.890;4.744;2023-06-01T00:28:51;15.20;99.90
8792;DHT22;4432;50.890;4.744;2023-06-01T00:31:17;15.10;99.90
8792;DHT22;4432;50.890;4.744;2023-06-01T00:33:42;15.10;99.90
8792;DHT22;4432;50.890;4.744;2023-06-01T00:36:08;15.00;99.90
8792;DHT22;4432;50.890;4.744;2023-06-01T00:38:34;15.00;99.90
8792;DHT22;4432;50.890;4.744;2023-06-01T00:41:00;14.90;99.90
8792;DHT22;4432;50.890;4.744;2023-06-01T00:43:26;14.90;99.90
8792;DHT22;4432;50.890;4.744;2023-06-01T00:45:52;14.80;99.90
8792;DHT22;4432;50.890;4.744;2023-06-01T00:48:19;14.70;99.90
8792;DHT22;4432;50.890;4.744;2023-06-01T00:50:46;14.70;99.90
8792;DHT22;4432;50.890;4.744;2023-06-01T00:53:18;14.70;99.90
8792;DHT22;4432;50.890;4.744;2023-06-01T00:55:45;14.70;99.90
8792;DHT22;4432;50.890;4.744;2023-06-01T00:58:12;14.70;99.90
8792;DHT22;4432;50.890;4.744;2023-06-01T01:00:38;14.70;99.90
8792;DHT22;4432;50.890;4.744;2023-06-01T01:03:06;14.60;99.90
8792;DHT22;4432;50.890;4.744;2023-06-01T01:05:38;14.60;99.90
8792;DHT22;4432;50.890;4.744;2023-06-01T01:08:36;14.50;99.90
8792;DHT22;4432;50.890;4.744;2023-06-01T01:11:11;14.50;99.90
8792;DHT22;4432;50.890;4.744;2023-06-01T01:13:48;14.40;99.90
8792;DHT22;4432;50.890;4.744;2023-06-01T01:16:47;14.40;99.90
8792;DHT22;4432;50.890;4.744;2023-06-01T01:30:48;14.10;99.90
8792;DHT22;4432;50.890;4.744;2023-06-01T01:33:15;14.00;99.90
8792;DHT22;4432;50.890;4.744;2023-06-01T01:35:42;14.10;99.90
8792;DHT22;4432;50.890;4.744;2023-06-01T01:38:08;14.10;99.90
8792;DHT22;4432;50.890;4.744;2023-06-01T01:40:34;14.00;99.90
8792;DHT22;4432;50.890;4.744;2023-06-01T01:43:00;14.00;99.90
8792;DHT22;4432;50.890;4.744;2023-06-01T01:45:27;14.00;99.90
8792;DHT22;4432;50.890;4.744;2023-06-01T01:48:20;13.90;99.90
8792;DHT22;4432;50.890;4.744;2023-06-01T01:50:59;13.90;99.90
8792;DHT22;4432;50.890;4.744;2023-06-01T01:53:27;13.80;99.90
8792;DHT22;4432;50.890;4.744;2023-06-01T01:55:55;13.80;99.90
8792;DHT22;4432;50.890;4.744;2023-06-01T01:58:23;13.70;99.90
8792;DHT22;4432;50.890;4.744;2023-06-01T02:00:50;13.70;99.90
8792;DHT22;4432;50.890;4.744;2023-06-01T02:03:17;13.70;99.90
8792;DHT22;4432;50.890;4.744;2023-06-01T02:05:43;13.60;99.90
8792;DHT22;4432;50.890;4.744;2023-06-01T02:08:10;13.60;99.90
8792;DHT22;4432;50.890;4.744;2023-06-01T02:10:36;13.60;99.90
8792;DHT22;4432;50.890;4.744;2023-06-01T02:13:03;13.60;99.90
8792;DHT22;4432;50.890;4.744;2023-06-01T02:15:29;13.50;99.90
8792;DHT22;4432;50.890;4.744;2023-06-01T02:17:55;13.50;99.90
8792;DHT22;4432;50.890;4.744;2023-06-01T02:20:21;13.50;99.90
8792;DHT22;4432;50.890;4.744;2023-06-01T02:22:47;13.40;99.90
8792;DHT22;4432;50.890;4.744;2023-06-01T02:25:13;13.30;99.90
8792;DHT22;4432;50.890;4.744;2023-06-01T02:27:38;13.30;99.90
8792;DHT22;4432;50.890;4.744;2023-06-01T02:30:05;13.30;99.90
8792;DHT22;4432;50.890;4.744;2023-06-01T02:32:32;13.20;99.90
8792;DHT22;4432;50.890;4.744;2023-06-01T02:34:58;13.20;99.90
8792;DHT22;4432;50.890;4.744;2023-06-01T02:37:24;13.20;99.90
8792;DHT22;4432;50.890;4.744;2023-06-01T02:39:50;13.10;99.90
8792;DHT22;4432;50.890;4.744;2023-06-01T02:42:16;13.10;99.90
8792;DHT22;4432;50.890;4.744;2023-06-01T02:44:42;13.00;99.90
8792;DHT22;4432;50.890;4.744;2023-06-01T02:47:07;13.00;99.90
8792;DHT22;4432;50.890;4.744;2023-06-01T02:49:33;13.00;99.90
8792;DHT22;4432;50.890;4.744;2023-06-01T02:51:59;13.00;99.90
8792;DHT22;4432;50.890;4.744;2023-06-01T02:54:25;13.00;99.90
8792;DHT22;4432;50.890;4.744;2023-06-01T02:56:50;12.90;99.90
8792;DHT22;4432;50.890;4.744;2023-06-01T02:59:16;12.90;99.90
8792;DHT22;4432;50.890;4.744;2023-06-01T03:01:42;12.80;99.90
8792;DHT22;4432;50.890;4.744;2023-06-01T03:04:08;12.70;99.90
8792;DHT22;4432;50.890;4.744;2023-06-01T03:06:34;12.70;99.90
8792;DHT22;4432;50.890;4.744;2023-06-01T03:09:03;12.70;99.90
8792;DHT22;4432;50.890;4.744;2023-06-01T03:11:29;12.70;99.90
8792;DHT22;4432;50.890;4.744;2023-06-01T03:13:55;12.70;99.90
8792;DHT22;4432;50.890;4.744;2023-06-01T03:16:23;12.60;99.90
8792;DHT22;4432;50.890;4.744;2023-06-01T03:18:49;12.60;99.90
8792;DHT22;4432;50.890;4.744;2023-06-01T03:21:14;12.60;99.90
8792;DHT22;4432;50.890;4.744;2023-06-01T03:23:42;12.50;99.90
8792;DHT22;4432;50.890;4.744;2023-06-01T03:26:12;12.50;99.90
8792;DHT22;4432;50.890;4.744;2023-06-01T03:28:39;12.40;99.90
8792;DHT22;4432;50.890;4.744;2023-06-01T03:31:05;12.40;99.90
8792;DHT22;4432;50.890;4.744;2023-06-01T03:33:32;12.40;99.90
8792;DHT22;4432;50.890;4.744;2023-06-01T03:35:58;12.30;99.90
8792;DHT22;4432;50.890;4.744;2023-06-01T03:38:24;12.30;99.90
8792;DHT22;4432;50.890;4.744;2023-06-01T03:40:50;12.30;99.90
8792;DHT22;4432;50.890;4.744;2023-06-01T03:43:16;12.30;99.90
8792;DHT22;4432;50.890;4.744;2023-06-01T03:45:41;12.30;99.90
8792;DHT22;4432;50.890;4.744;2023-06-01T03:48:07;12.30;99.90
8792;DHT22;4432;50.890;4.744;2023-06-01T03:50:33;12.20;99.90
8792;DHT22;4432;50.890;4.744;2023-06-01T03:52:59;12.20;99.90
8792;DHT22;4432;50.890;4.744;2023-06-01T03:55:25;12.20;99.90
8792;DHT22;4432;50.890;4.744;2023-06-01T03:57:52;12.20;99.90
8792;DHT22;4432;50.890;4.744;2023-06-01T04:00:18;12.20;99.90
8792;DHT22;4432;50.890;4.744;2023-06-01T04:05:11;12.20;99.90
8792;DHT22;4432;50.890;4.744;2023-06-01T04:07:46;12.20;99.90
8792;DHT22;4432;50.890;4.744;2023-06-01T04:10:12;12.20;99.90
8792;DHT22;4432;50.890;4.744;2023-06-01T04:12:43;12.20;99.90
8792;DHT22;4432;50.890;4.744;2023-06-01T04:15:11;12.20;99.90
8792;DHT22;4432;50.890;4.744;2023-06-01T04:17:38;12.20;99.90
8792;DHT22;4432;50.890;4.744;2023-06-01T04:20:05;12.20;99.90
8792;DHT22;4432;50.890;4.744;2023-06-01T04:22:35;12.20;99.90
8792;DHT22;4432;50.890;4.744;2023-06-01T04:25:03;12.20;99.90
8792;DHT22;4432;50.890;4.744;2023-06-01T04:27:29;12.20;99.90
8792;DHT22;4432;50.890;4.744;2023-06-01T04:29:55;12.20;99.90
8792;DHT22;4432;50.890;4.744;2023-06-01T04:32:25;12.20;99.90
8792;DHT22;4432;50.890;4.744;2023-06-01T04:34:53;12.20;99.90
8792;DHT22;4432;50.890;4.744;2023-06-01T04:37:18;12.30;99.90
8792;DHT22;4432;50.890;4.744;2023-06-01T04:39:47;12.30;99.90
8792;DHT22;4432;50.890;4.744;2023-06-01T04:42:17;12.30;99.90
8792;DHT22;4432;50.890;4.744;2023-06-01T04:44:45;12.30;99.90
8792;DHT22;4432;50.890;4.744;2023-06-01T04:47:15;12.30;99.90
8792;DHT22;4432;50.890;4.744;2023-06-01T04:49:42;12.40;99.90
8792;DHT22;4432;50.890;4.744;2023-06-01T04:52:09;12.50;99.90
8792;DHT22;4432;50.890;4.744;2023-06-01T04:54:37;12.50;99.90
8792;DHT22;4432;50.890;4.744;2023-06-01T04:57:04;12.50;99.90
8792;DHT22;4432;50.890;4.744;2023-06-01T04:59:32;12.50;99.90
8792;DHT22;4432;50.890;4.744;2023-06-01T05:01:59;12.50;99.90
8792;DHT22;4432;50.890;4.744;2023-06-01T05:04:25;12.50;99.90
8792;DHT22;4432;50.890;4.744;2023-06-01T05:06:51;12.50;99.90
8792;DHT22;4432;50.890;4.744;2023-06-01T05:09:17;12.50;99.90
8792;DHT22;4432;50.890;4.744;2023-06-01T05:11:44;12.50;99.90
8792;DHT22;4432;50.890;4.744;2023-06-01T05:14:10;12.50;99.90
8792;DHT22;4432;50.890;4.744;2023-06-01T05:16:35;12.30;99.90
8792;DHT22;4432;50.890;4.744;2023-06-01T05:19:01;12.30;99.90
8792;DHT22;4432;50.890;4.744;2023-06-01T05:21:27;12.30;99.90
8792;DHT22;4432;50.890;4.744;2023-06-01T05:23:53;12.30;99.90
8792;DHT22;4432;50.890;4.744;2023-06-01T05:26:19;12.30;99.90
8792;DHT22;4432;50.890;4.744;2023-06-01T05:28:47;12.40;99.90
8792;DHT22;4432;50.890;4.744;2023-06-01T05:31:13;12.50;99.90
8792;DHT22;4432;50.890;4.744;2023-06-01T05:33:39;12.40;99.90
8792;DHT22;4432;50.890;4.744;2023-06-01T05:36:05;12.40;99.90
8792;DHT22;4432;50.890;4.744;2023-06-01T05:38:31;12.40;99.90
8792;DHT22;4432;50.890;4.744;2023-06-01T05:40:57;12.50;99.90
8792;DHT22;4432;50.890;4.744;2023-06-01T05:43:23;12.40;99.90
8792;DHT22;4432;50.890;4.744;2023-06-01T05:45:49;12.40;99.90
8792;DHT22;4432;50.890;4.744;2023-06-01T05:48:15;12.40;99.90
8792;DHT22;4432;50.890;4.744;2023-06-01T05:50:41;12.50;99.90
8792;DHT22;4432;50.890;4.744;2023-06-01T05:53:08;12.60;99.90
8792;DHT22;4432;50.890;4.744;2023-06-01T05:55:35;12.50;99.90
8792;DHT22;4432;50.890;4.744;2023-06-01T05:58:01;12.50;99.90
8792;DHT22;4432;50.890;4.744;2023-06-01T06:00:26;12.60;99.90
8792;DHT22;4432;50.890;4.744;2023-06-01T06:02:52;12.60;99.90
8792;DHT22;4432;50.890;4.744;2023-06-01T06:05:18;12.70;99.90
8792;DHT22;4432;50.890;4.744;2023-06-01T06:07:44;12.80;99.90
8792;DHT22;4432;50.890;4.744;2023-06-01T06:10:11;12.80;99.90
8792;DHT22;4432;50.890;4.744;2023-06-01T06:12:37;12.90;99.90
8792;DHT22;4432;50.890;4.744;2023-06-01T06:15:03;12.80;99.90
8792;DHT22;4432;50.890;4.744;2023-06-01T06:17:29;12.70;99.90
8792;DHT22;4432;50.890;4.744;2023-06-01T06:19:55;12.80;99.90
8792;DHT22;4432;50.890;4.744;2023-06-01T06:22:21;12.60;99.90
8792;DHT22;4432;50.890;4.744;2023-06-01T06:24:47;12.50;99.90
8792;DHT22;4432;50.890;4.744;2023-06-01T06:27:13;12.50;99.90
8792;DHT22;4432;50.890;4.744;2023-06-01T06:29:38;12.50;99.90
8792;DHT22;4432;50.890;4.744;2023-06-01T06:32:05;12.60;99.90
8792;DHT22;4432;50.890;4.744;2023-06-01T06:34:31;12.70;99.90
8792;DHT22;4432;50.890;4.744;2023-06-01T06:37:09;12.90;99.90
8792;DHT22;4432;50.890;4.744;2023-06-01T06:39:36;12.90;99.90
8792;DHT22;4432;50.890;4.744;2023-06-01T06:42:04;13.00;99.90
8792;DHT22;4432;50.890;4.744;2023-06-01T06:44:31;13.10;99.90
8792;DHT22;4432;50.890;4.744;2023-06-01T06:46:59;13.20;99.90
8792;DHT22;4432;50.890;4.744;2023-06-01T06:49:28;13.40;99.90
8792;DHT22;4432;50.890;4.744;2023-06-01T06:51:54;13.50;99.90
8792;DHT22;4432;50.890;4.744;2023-06-01T06:54:19;13.70;99.90
8792;DHT22;4432;50.890;4.744;2023-06-01T06:56:45;13.80;99.90
8792;DHT22;4432;50.890;4.744;2023-06-01T06:59:11;13.90;99.90
8792;DHT22;4432;50.890;4.744;2023-06-01T07:01:37;13.90;99.90
8792;DHT22;4432;50.890;4.744;2023-06-01T07:04:04;14.10;99.90
8792;DHT22;4432;50.890;4.744;2023-06-01T07:06:31;14.30;99.90
8792;DHT22;4432;50.890;4.744;2023-06-01T07:08:58;14.30;99.90
8792;DHT22;4432;50.890;4.744;2023-06-01T07:11:24;14.40;99.90
8792;DHT22;4432;50.890;4.744;2023-06-01T07:13:53;14.50;99.90
8792;DHT22;4432;50.890;4.744;2023-06-01T07:16:19;14.40;99.90
8792;DHT22;4432;50.890;4.744;2023-06-01T07:18:44;14.20;99.90
8792;DHT22;4432;50.890;4.744;2023-06-01T07:21:10;14.00;99.90
8792;DHT22;4432;50.890;4.744;2023-06-01T07:23:36;13.90;99.90
8792;DHT22;4432;50.890;4.744;2023-06-01T07:26:02;13.90;99.90
8792;DHT22;4432;50.890;4.744;2023-06-01T07:28:27;14.30;99.90
8792;DHT22;4432;50.890;4.744;2023-06-01T07:30:54;14.80;99.90
8792;DHT22;4432;50.890;4.744;2023-06-01T07:33:19;15.30;99.90
8792;DHT22;4432;50.890;4.744;2023-06-01T07:35:46;15.60;99.90
8792;DHT22;4432;50.890;4.744;2023-06-01T07:38:12;15.90;99.90
8792;DHT22;4432;50.890;4.744;2023-06-01T07:40:38;15.90;99.90
8792;DHT22;4432;50.890;4.744;2023-06-01T07:43:03;15.80;99.90
8792;DHT22;4432;50.890;4.744;2023-06-01T07:45:29;15.80;99.90
8792;DHT22;4432;50.890;4.744;2023-06-01T07:47:55;16.00;99.90
8792;DHT22;4432;50.890;4.744;2023-06-01T07:50:21;16.00;99.90
8792;DHT22;4432;50.890;4.744;2023-06-01T07:52:48;16.10;99.90
8792;DHT22;4432;50.890;4.744;2023-06-01T07:55:17;15.90;99.90
8792;DHT22;4432;50.890;4.744;2023-06-01T07:57:43;15.80;99.90
8792;DHT22;4432;50.890;4.744;2023-06-01T08:00:09;15.50;99.90
8792;DHT22;4432;50.890;4.744;2023-06-01T08:02:38;15.60;99.90
8792;DHT22;4432;50.890;4.744;2023-06-01T08:05:04;15.70;99.90
8792;DHT22;4432;50.890;4.744;2023-06-01T08:07:30;15.80;99.90
8792;DHT22;4432;50.890;4.744;2023-06-01T08:09:56;16.10;99.90
8792;DHT22;4432;50.890;4.744;2023-06-01T08:12:24;16.30;99.90
8792;DHT22;4432;50.890;4.744;2023-06-01T08:14:51;16.90;99.90
8792;DHT22;4432;50.890;4.744;2023-06-01T08:17:17;17.00;99.90
8792;DHT22;4432;50.890;4.744;2023-06-01T08:19:44;16.80;99.90
8792;DHT22;4432;50.890;4.744;2023-06-01T08:22:10;16.90;99.90
8792;DHT22;4432;50.890;4.744;2023-06-01T08:24:37;16.40;99.90
8792;DHT22;4432;50.890;4.744;2023-06-01T08:27:16;16.00;99.90
8792;DHT22;4432;50.890;4.744;2023-06-01T08:29:44;15.80;99.90
8792;DHT22;4432;50.890;4.744;2023-06-01T08:32:11;15.40;99.90
8792;DHT22;4432;50.890;4.744;2023-06-01T08:34:36;15.20;99.90
8792;DHT22;4432;50.890;4.744;2023-06-01T08:37:02;15.00;99.90
8792;DHT22;4432;50.890;4.744;2023-06-01T08:47:36;15.40;99.90
8792;DHT22;4432;50.890;4.744;2023-06-01T08:50:03;15.70;99.90
8792;DHT22;4432;50.890;4.744;2023-06-01T08:52:31;15.70;99.90
8792;DHT22;4432;50.890;4.744;2023-06-01T08:55:00;15.70;99.90
8792;DHT22;4432;50.890;4.744;2023-06-01T08:57:28;15.90;99.90
8792;DHT22;4432;50.890;4.744;2023-06-01T08:59:55;16.20;99.90
8792;DHT22;4432;50.890;4.744;2023-06-01T09:02:21;16.60;99.90
8792;DHT22;4432;50.890;4.744;2023-06-01T09:04:47;17.10;99.90
8792;DHT22;4432;50.890;4.744;2023-06-01T09:07:13;17.50;99.90
8792;DHT22;4432;50.890;4.744;2023-06-01T09:09:39;18.20;99.90
8792;DHT22;4432;50.890;4.744;2023-06-01T09:12:26;18.80;99.90
8792;DHT22;4432;50.890;4.744;2023-06-01T09:15:15;19.40;99.90
8792;DHT22;4432;50.890;4.744;2023-06-01T09:17:47;19.60;99.90
8792;DHT22;4432;50.890;4.744;2023-06-01T09:20:14;19.40;99.90
8792;DHT22;4432;50.890;4.744;2023-06-01T09:22:45;19.40;99.90
8792;DHT22;4432;50.890;4.744;2023-06-01T09:25:12;19.80;99.90
8792;DHT22;4432;50.890;4.744;2023-06-01T09:30:11;20.10;99.90
8792;DHT22;4432;50.890;4.744;2023-06-01T09:32:37;19.90;99.90
8792;DHT22;4432;50.890;4.744;2023-06-01T09:35:03;20.10;99.90
8792;DHT22;4432;50.890;4.744;2023-06-01T09:37:32;20.20;99.90
8792;DHT22;4432;50.890;4.744;2023-06-01T09:39:58;20.00;99.90
8792;DHT22;4432;50.890;4.744;2023-06-01T09:42:33;19.80;99.90
8792;DHT22;4432;50.890;4.744;2023-06-01T09:45:15;20.00;99.90
8792;DHT22;4432;50.890;4.744;2023-06-01T09:47:42;20.30;99.90
8792;DHT22;4432;50.890;4.744;2023-06-01T09:50:08;20.90;99.90
8792;DHT22;4432;50.890;4.744;2023-06-01T09:52:34;21.40;99.90
8792;DHT22;4432;50.890;4.744;2023-06-01T09:55:08;21.80;99.90
8792;DHT22;4432;50.890;4.744;2023-06-01T09:57:33;21.50;98.00
8792;DHT22;4432;50.890;4.744;2023-06-01T10:00:01;21.10;99.60
8792;DHT22;4432;50.890;4.744;2023-06-01T10:02:32;21.50;97.90
8792;DHT22;4432;50.890;4.744;2023-06-01T10:04:59;21.80;96.90
8792;DHT22;4432;50.890;4.744;2023-06-01T10:07:28;21.70;93.90
8792;DHT22;4432;50.890;4.744;2023-06-01T10:09:55;21.40;94.00
8792;DHT22;4432;50.890;4.744;2023-06-01T10:12:24;21.30;93.30
8792;DHT22;4432;50.890;4.744;2023-06-01T10:14:50;21.20;94.40
8792;DHT22;4432;50.890;4.744;2023-06-01T10:17:18;20.90;93.30
8792;DHT22;4432;50.890;4.744;2023-06-01T10:19:44;21.00;94.40
8792;DHT22;4432;50.890;4.744;2023-06-01T10:22:11;21.20;93.90
8792;DHT22;4432;50.890;4.744;2023-06-01T10:24:38;21.20;93.60
8792;DHT22;4432;50.890;4.744;2023-06-01T10:29:53;21.00;95.10
8792;DHT22;4432;50.890;4.744;2023-06-01T10:32:40;21.20;92.40
8792;DHT22;4432;50.890;4.744;2023-06-01T10:35:11;20.90;94.10
8792;DHT22;4432;50.890;4.744;2023-06-01T10:40:41;20.80;92.80
8792;DHT22;4432;50.890;4.744;2023-06-01T10:43:38;20.90;92.50
8792;DHT22;4432;50.890;4.744;2023-06-01T10:45:54;20.70;92.30
8792;DHT22;4432;50.890;4.744;2023-06-01T10:48:55;20.50;93.70
8792;DHT22;4432;50.890;4.744;2023-06-01T10:51:22;20.50;95.10
8792;DHT22;4432;50.890;4.744;2023-06-01T10:53:50;20.50;94.40
8792;DHT22;4432;50.890;4.744;2023-06-01T10:56:29;20.40;94.10
8792;DHT22;4432;50.890;4.744;2023-06-01T11:01:37;20.70;95.70
8792;DHT22;4432;50.890;4.744;2023-06-01T11:04:04;20.60;94.30
8792;DHT22;4432;50.890;4.744;2023-06-01T11:06:32;20.70;93.00
8792;DHT22;4432;50.890;4.744;2023-06-01T11:09:00;20.80;94.30
8792;DHT22;4432;50.890;4.744;2023-06-01T11:14:25;21.20;93.20
8792;DHT22;4432;50.890;4.744;2023-06-01T11:16:53;20.60;92.60
8792;DHT22;4432;50.890;4.744;2023-06-01T11:19:24;20.80;93.80
8792;DHT22;4432;50.890;4.744;2023-06-01T11:22:00;20.90;93.90
8792;DHT22;4432;50.890;4.744;2023-06-01T11:24:35;21.00;93.10
8792;DHT22;4432;50.890;4.744;2023-06-01T11:27:10;20.90;90.30
8792;DHT22;4432;50.890;4.744;2023-06-01T11:29:36;20.90;92.90
8792;DHT22;4432;50.890;4.744;2023-06-01T11:32:04;21.10;91.80
8792;DHT22;4432;50.890;4.744;2023-06-01T11:34:39;21.40;91.30
8792;DHT22;4432;50.890;4.744;2023-06-01T11:37:12;21.30;90.00
8792;DHT22;4432;50.890;4.744;2023-06-01T11:39:40;21.10;92.20
8792;DHT22;4432;50.890;4.744;2023-06-01T11:42:07;21.30;92.30
8792;DHT22;4432;50.890;4.744;2023-06-01T11:44:40;21.40;92.10
8792;DHT22;4432;50.890;4.744;2023-06-01T11:47:08;21.80;92.20
8792;DHT22;4432;50.890;4.744;2023-06-01T11:49:44;21.70;90.10
8792;DHT22;4432;50.890;4.744;2023-06-01T11:52:13;21.60;90.10
8792;DHT22;4432;50.890;4.744;2023-06-01T11:54:39;21.80;90.50
8792;DHT22;4432;50.890;4.744;2023-06-01T11:57:06;21.70;90.60
8792;DHT22;4432;50.890;4.744;2023-06-01T11:59:40;21.70;91.00
8792;DHT22;4432;50.890;4.744;2023-06-01T12:02:26;22.10;90.30
8792;DHT22;4432;50.890;4.744;2023-06-01T12:05:03;21.90;85.80
8792;DHT22;4432;50.890;4.744;2023-06-01T12:07:47;21.60;89.70
8792;DHT22;4432;50.890;4.744;2023-06-01T12:10:15;21.90;90.30
8792;DHT22;4432;50.890;4.744;2023-06-01T12:12:42;22.10;89.70
8792;DHT22;4432;50.890;4.744;2023-06-01T12:15:15;22.10;88.20
8792;DHT22;4432;50.890;4.744;2023-06-01T12:17:49;22.20;87.50
8792;DHT22;4432;50.890;4.744;2023-06-01T12:20:35;22.20;90.30
8792;DHT22;4432;50.890;4.744;2023-06-01T12:25:52;22.40;90.30
8792;DHT22;4432;50.890;4.744;2023-06-01T12:28:20;22.20;88.60
8792;DHT22;4432;50.890;4.744;2023-06-01T12:30:47;22.00;89.50
8792;DHT22;4432;50.890;4.744;2023-06-01T12:33:32;22.00;90.60
8792;DHT22;4432;50.890;4.744;2023-06-01T12:36:04;22.10;86.00
8792;DHT22;4432;50.890;4.744;2023-06-01T12:38:51;22.30;87.30
8792;DHT22;4432;50.890;4.744;2023-06-01T12:41:18;22.40;84.50
8792;DHT22;4432;50.890;4.744;2023-06-01T12:43:45;22.60;84.30
8792;DHT22;4432;50.890;4.744;2023-06-01T12:46:18;22.60;82.40
8792;DHT22;4432;50.890;4.744;2023-06-01T12:48:45;22.60;81.10
8792;DHT22;4432;50.890;4.744;2023-06-01T12:51:12;22.60;81.80
8792;DHT22;4432;50.890;4.744;2023-06-01T12:53:39;22.90;79.30
8792;DHT22;4432;50.890;4.744;2023-06-01T12:56:05;23.10;79.80
8792;DHT22;4432;50.890;4.744;2023-06-01T12:58:32;23.10;79.40
8792;DHT22;4432;50.890;4.744;2023-06-01T13:00:58;23.10;79.20
8792;DHT22;4432;50.890;4.744;2023-06-01T13:03:23;23.10;78.00
8792;DHT22;4432;50.890;4.744;2023-06-01T13:05:49;23.00;74.70
8792;DHT22;4432;50.890;4.744;2023-06-01T13:08:16;23.10;69.50
8792;DHT22;4432;50.890;4.744;2023-06-01T13:10:43;23.10;70.70
8792;DHT22;4432;50.890;4.744;2023-06-01T13:13:09;22.90;70.40
8792;DHT22;4432;50.890;4.744;2023-06-01T13:15:40;22.80;73.00
8792;DHT22;4432;50.890;4.744;2023-06-01T13:18:06;22.80;73.60
8792;DHT22;4432;50.890;4.744;2023-06-01T13:20:32;22.80;75.60
8792;DHT22;4432;50.890;4.744;2023-06-01T13:22:57;23.10;77.10
8792;DHT22;4432;50.890;4.744;2023-06-01T13:25:23;23.20;78.90
8792;DHT22;4432;50.890;4.744;2023-06-01T13:27:49;23.30;74.00
8792;DHT22;4432;50.890;4.744;2023-06-01T13:30:16;23.20;70.40
8792;DHT22;4432;50.890;4.744;2023-06-01T13:32:43;23.20;69.80
8792;DHT22;4432;50.890;4.744;2023-06-01T13:35:09;23.30;66.50
8792;DHT22;4432;50.890;4.744;2023-06-01T13:37:37;23.10;66.70
8792;DHT22;4432;50.890;4.744;2023-06-01T13:40:04;23.00;67.60
8792;DHT22;4432;50.890;4.744;2023-06-01T13:42:33;23.00;69.30
8792;DHT22;4432;50.890;4.744;2023-06-01T13:44:59;23.00;70.40
8792;DHT22;4432;50.890;4.744;2023-06-01T13:47:25;23.10;61.40
8792;DHT22;4432;50.890;4.744;2023-06-01T13:49:51;22.90;63.50
8792;DHT22;4432;50.890;4.744;2023-06-01T13:52:18;22.80;66.70
8792;DHT22;4432;50.890;4.744;2023-06-01T13:54:44;22.70;62.80
8792;DHT22;4432;50.890;4.744;2023-06-01T13:57:10;22.80;66.50
8792;DHT22;4432;50.890;4.744;2023-06-01T13:59:36;22.90;64.30
8792;DHT22;4432;50.890;4.744;2023-06-01T14:02:03;23.00;63.90
8792;DHT22;4432;50.890;4.744;2023-06-01T14:04:30;22.80;64.00
8792;DHT22;4432;50.890;4.744;2023-06-01T14:06:56;22.80;64.20
8792;DHT22;4432;50.890;4.744;2023-06-01T14:09:22;23.00;66.50
8792;DHT22;4432;50.890;4.744;2023-06-01T14:11:49;23.00;63.90
8792;DHT22;4432;50.890;4.744;2023-06-01T14:14:15;22.90;63.80
8792;DHT22;4432;50.890;4.744;2023-06-01T14:16:41;22.90;64.00
8792;DHT22;4432;50.890;4.744;2023-06-01T14:19:07;22.90;65.30
8792;DHT22;4432;50.890;4.744;2023-06-01T14:21:33;22.80;64.20
8792;DHT22;4432;50.890;4.744;2023-06-01T14:24:00;22.80;64.70
8792;DHT22;4432;50.890;4.744;2023-06-01T14:26:26;22.60;65.10
8792;DHT22;4432;50.890;4.744;2023-06-01T14:28:53;22.60;67.90
8792;DHT22;4432;50.890;4.744;2023-06-01T14:31:19;22.70;67.90
8792;DHT22;4432;50.890;4.744;2023-06-01T14:33:48;22.90;69.50
8792;DHT22;4432;50.890;4.744;2023-06-01T14:36:14;22.90;66.50
8792;DHT22;4432;50.890;4.744;2023-06-01T14:38:40;22.80;71.20
8792;DHT22;4432;50.890;4.744;2023-06-01T14:41:06;22.80;68.80
8792;DHT22;4432;50.890;4.744;2023-06-01T14:43:32;23.00;69.70
8792;DHT22;4432;50.890;4.744;2023-06-01T14:45:58;23.20;67.80
8792;DHT22;4432;50.890;4.744;2023-06-01T14:48:25;23.30;69.50
8792;DHT22;4432;50.890;4.744;2023-06-01T14:50:51;23.40;67.30
8792;DHT22;4432;50.890;4.744;2023-06-01T14:53:17;23.00;67.40
8792;DHT22;4432;50.890;4.744;2023-06-01T14:55:43;22.90;66.90
8792;DHT22;4432;50.890;4.744;2023-06-01T14:58:09;23.00;69.00
8792;DHT22;4432;50.890;4.744;2023-06-01T15:00:36;23.10;70.20
8792;DHT22;4432;50.890;4.744;2023-06-01T15:03:03;23.20;70.80
8792;DHT22;4432;50.890;4.744;2023-06-01T15:05:29;23.00;68.30
8792;DHT22;4432;50.890;4.744;2023-06-01T15:07:55;23.00;69.50
8792;DHT22;4432;50.890;4.744;2023-06-01T15:10:21;22.90;67.90
8792;DHT22;4432;50.890;4.744;2023-06-01T15:12:47;22.80;67.20
8792;DHT22;4432;50.890;4.744;2023-06-01T15:15:13;22.80;66.50
8792;DHT22;4432;50.890;4.744;2023-06-01T15:17:39;22.80;67.20
8792;DHT22;4432;50.890;4.744;2023-06-01T15:20:06;22.70;68.00
8792;DHT22;4432;50.890;4.744;2023-06-01T15:22:32;22.60;69.20
8792;DHT22;4432;50.890;4.744;2023-06-01T15:24:58;22.60;71.50
8792;DHT22;4432;50.890;4.744;2023-06-01T15:27:24;22.60;71.20
8792;DHT22;4432;50.890;4.744;2023-06-01T15:29:50;22.70;70.60
8792;DHT22;4432;50.890;4.744;2023-06-01T15:32:16;22.60;69.60
8792;DHT22;4432;50.890;4.744;2023-06-01T15:34:42;22.50;71.00
8792;DHT22;4432;50.890;4.744;2023-06-01T15:37:08;22.40;70.50
8792;DHT22;4432;50.890;4.744;2023-06-01T15:39:35;22.30;70.40
8792;DHT22;4432;50.890;4.744;2023-06-01T15:42:07;22.40;72.20
8792;DHT22;4432;50.890;4.744;2023-06-01T15:44:33;22.50;69.10
8792;DHT22;4432;50.890;4.744;2023-06-01T15:46:59;22.40;71.00
8792;DHT22;4432;50.890;4.744;2023-06-01T15:49:26;22.30;72.60
8792;DHT22;4432;50.890;4.744;2023-06-01T15:51:52;22.20;69.20
8792;DHT22;4432;50.890;4.744;2023-06-01T15:54:18;22.20;68.20
8792;DHT22;4432;50.890;4.744;2023-06-01T15:56:44;22.30;71.90
8792;DHT22;4432;50.890;4.744;2023-06-01T15:59:09;22.30;72.60
8792;DHT22;4432;50.890;4.744;2023-06-01T16:01:35;22.20;76.00
8792;DHT22;4432;50.890;4.744;2023-06-01T16:04:01;22.10;72.00
8792;DHT22;4432;50.890;4.744;2023-06-01T16:06:27;21.90;72.90
8792;DHT22;4432;50.890;4.744;2023-06-01T16:08:53;22.00;71.30
8792;DHT22;4432;50.890;4.744;2023-06-01T16:11:19;21.90;70.80
8792;DHT22;4432;50.890;4.744;2023-06-01T16:13:44;21.90;70.20
8792;DHT22;4432;50.890;4.744;2023-06-01T16:16:10;21.90;71.20
8792;DHT22;4432;50.890;4.744;2023-06-01T16:18:37;21.80;70.30
8792;DHT22;4432;50.890;4.744;2023-06-01T16:21:03;21.70;72.60
8792;DHT22;4432;50.890;4.744;2023-06-01T16:23:29;21.60;72.50
8792;DHT22;4432;50.890;4.744;2023-06-01T16:25:55;21.60;72.80
8792;DHT22;4432;50.890;4.744;2023-06-01T16:28:20;21.60;72.90
8792;DHT22;4432;50.890;4.744;2023-06-01T16:30:46;21.50;71.70
8792;DHT22;4432;50.890;4.744;2023-06-01T16:33:12;21.50;73.00
8792;DHT22;4432;50.890;4.744;2023-06-01T16:35:38;21.50;74.40
8792;DHT22;4432;50.890;4.744;2023-06-01T16:38:04;21.40;74.70
8792;DHT22;4432;50.890;4.744;2023-06-01T16:40:30;21.30;75.90
8792;DHT22;4432;50.890;4.744;2023-06-01T16:42:55;21.20;76.00
8792;DHT22;4432;50.890;4.744;2023-06-01T16:45:21;21.20;76.00